createdAt,value
2022-09-05T00:00:14.972Z,99.90
2022-09-05T00:03:01.968Z,99.90
2022-09-05T00:06:02.166Z,99.90
2022-09-05T00:08:42.168Z,99.90
2022-09-05T00:11:41.498Z,99.90
2022-09-05T00:14:34.157Z,99.90
2022-09-05T00:17:18.771Z,99.90
2022-09-05T00:24:19.056Z,99.90
2022-09-05T00:24:25.897Z,99.90
2022-09-05T00:26:12.882Z,99.90
2022-09-05T00:28:49.007Z,99.90
2022-09-05T00:31:54.176Z,99.90
2022-09-05T00:34:47.411Z,99.90
2022-09-05T00:37:28.711Z,99.90
2022-09-05T00:40:18.169Z,99.90
2022-09-05T00:42:50.620Z,99.90
2022-09-05T00:45:27.383Z,99.90
2022-09-05T00:48:03.158Z,99.90
2022-09-05T00:50:42.876Z,99.90
2022-09-05T00:53:16.106Z,99.90
2022-09-05T00:55:58.880Z,99.90
2022-09-05T00:59:05.056Z,99.90
2022-09-05T01:01:42.743Z,99.90
2022-09-05T01:04:36.110Z,99.90
2022-09-05T01:07:16.534Z,99.90
2022-09-05T01:09:53.310Z,99.90
2022-09-05T01:12:42.014Z,99.90
2022-09-05T01:15:29.998Z,99.90
2022-09-05T01:18:16.773Z,99.90
2022-09-05T01:21:10.097Z,99.90
2022-09-05T01:24:03.327Z,99.90
2022-09-05T01:26:58.591Z,99.90
2022-09-05T01:29:35.922Z,99.90
2022-09-05T01:32:18.102Z,99.90
2022-09-05T01:35:00.622Z,99.90
2022-09-05T01:37:37.527Z,99.90
2022-09-05T01:40:20.602Z,99.90
2022-09-05T01:43:02.820Z,99.90
2022-09-05T01:45:48.799Z,99.90
2022-09-05T01:48:31.335Z,99.90
2022-09-05T01:51:29.250Z,99.90
2022-09-05T01:54:24.385Z,99.90
2022-09-05T01:57:09.321Z,99.90
2022-09-05T01:59:49.403Z,99.90
2022-09-05T02:02:25.312Z,99.90
2022-09-05T02:05:47.834Z,99.90
2022-09-05T02:08:36.706Z,99.90
2022-09-05T02:11:07.396Z,99.90
2022-09-05T02:13:54.483Z,99.90
2022-09-05T02:16:29.604Z,99.90
2022-09-05T02:19:06.367Z,99.90
2022-09-05T02:21:56.141Z,99.90
2022-09-05T02:24:31.061Z,99.90
2022-09-05T02:27:46.159Z,99.90
2022-09-05T02:30:11.790Z,99.90
2022-09-05T02:32:46.832Z,99.90
2022-09-05T02:35:25.685Z,99.90
2022-09-05T02:38:23.887Z,99.90
2022-09-05T02:45:06.293Z,99.90
2022-09-05T02:45:18.109Z,99.90
2022-09-05T02:46:46.716Z,99.90
2022-09-05T02:50:29.619Z,99.90
2022-09-05T02:57:26.825Z,99.90
2022-09-05T02:57:33.358Z,99.90
2022-09-05T02:58:07.951Z,99.90
2022-09-05T03:00:44.016Z,99.90
2022-09-05T03:03:21.217Z,99.90
2022-09-05T03:05:57.728Z,99.90
2022-09-05T03:08:50.182Z,99.90
2022-09-05T03:12:07.190Z,99.90
2022-09-05T03:15:35.003Z,99.90
2022-09-05T03:18:49.103Z,99.90
2022-09-05T03:21:45.002Z,99.90
2022-09-05T03:24:59.079Z,99.90
2022-09-05T03:28:28.412Z,99.90
2022-09-05T03:31:22.107Z,99.90
2022-09-05T03:34:28.645Z,99.90
2022-09-05T03:37:27.760Z,99.90
2022-09-05T03:40:29.884Z,99.90
2022-09-05T03:43:23.533Z,99.90
2022-09-05T03:46:13.233Z,99.90
2022-09-05T03:48:58.077Z,99.90
2022-09-05T03:57:11.101Z,99.90
2022-09-05T03:57:16.678Z,99.90
2022-09-05T03:58:56.031Z,99.90
2022-09-05T04:03:49.037Z,99.90
2022-09-05T04:08:23.892Z,99.90
2022-09-05T04:08:24.513Z,99.90
2022-09-05T04:10:24.363Z,99.90
2022-09-05T04:12:58.906Z,99.90
2022-09-05T04:15:36.823Z,99.90
2022-09-05T04:18:25.680Z,99.90
2022-09-05T04:21:08.116Z,99.90
2022-09-05T04:23:49.375Z,99.90
2022-09-05T04:26:37.866Z,99.90
2022-09-05T04:29:17.017Z,99.90
2022-09-05T04:32:18.396Z,99.90
2022-09-05T04:34:56.997Z,99.90
2022-09-05T04:37:48.957Z,99.90
2022-09-05T04:40:46.318Z,99.90
2022-09-05T04:43:21.882Z,99.90
2022-09-05T04:45:54.633Z,99.90
2022-09-05T04:48:29.167Z,99.90
2022-09-05T04:51:12.925Z,99.90
2022-09-05T04:53:58.015Z,99.90
2022-09-05T04:56:31.679Z,99.90
2022-09-05T05:01:40.712Z,99.90
2022-09-05T05:06:02.608Z,99.90
2022-09-05T05:06:18.131Z,99.90
2022-09-05T05:07:45.897Z,99.90
2022-09-05T05:11:07.504Z,99.90
2022-09-05T05:18:01.445Z,99.90
2022-09-05T05:18:15.972Z,99.90
2022-09-05T05:19:19.031Z,99.90
2022-09-05T05:21:52.816Z,99.90
2022-09-05T05:24:25.628Z,99.90
2022-09-05T05:26:59.998Z,99.90
2022-09-05T05:29:44.346Z,99.90
2022-09-05T05:32:28.182Z,99.90
2022-09-05T05:35:11.097Z,99.90
2022-09-05T05:37:44.416Z,99.90
2022-09-05T05:40:21.919Z,99.90
2022-09-05T05:42:50.285Z,99.90
2022-09-05T05:45:20.470Z,99.90
2022-09-05T05:47:53.150Z,99.90
2022-09-05T05:50:34.306Z,99.90
2022-09-05T05:53:36.346Z,99.90
2022-09-05T05:56:23.368Z,99.90
2022-09-05T05:59:03.794Z,99.90
2022-09-05T06:02:11.514Z,99.90
2022-09-05T06:05:21.260Z,99.90
2022-09-05T06:09:42.171Z,99.90
2022-09-05T06:15:03.766Z,99.90
2022-09-05T06:15:10.465Z,99.90
2022-09-05T06:18:25.286Z,99.90
2022-09-05T06:22:11.512Z,99.90
2022-09-05T06:25:17.061Z,99.90
2022-09-05T06:28:18.814Z,99.90
2022-09-05T06:30:57.124Z,99.90
2022-09-05T06:33:59.976Z,99.90
2022-09-05T06:36:48.940Z,99.90
2022-09-05T06:39:25.465Z,99.90
2022-09-05T06:42:15.083Z,99.90
2022-09-05T06:45:27.807Z,99.90
2022-09-05T06:48:05.966Z,99.90
2022-09-05T06:51:07.442Z,99.90
2022-09-05T06:54:05.456Z,99.90
2022-09-05T06:56:46.353Z,99.90
2022-09-05T06:59:51.569Z,99.90
2022-09-05T07:02:58.246Z,99.90
2022-09-05T07:05:39.528Z,99.90
2022-09-05T07:08:35.660Z,99.90
2022-09-05T07:11:15.549Z,99.90
2022-09-05T07:13:54.740Z,99.90
2022-09-05T07:16:37.814Z,99.90
2022-09-05T07:19:27.517Z,99.90
2022-09-05T07:22:45.915Z,99.90
2022-09-05T07:25:09.105Z,99.90
2022-09-05T07:27:41.994Z,99.90
2022-09-05T07:30:29.461Z,99.90
2022-09-05T07:32:59.707Z,99.90
2022-09-05T07:35:39.802Z,99.90
2022-09-05T07:38:15.220Z,99.90
2022-09-05T07:40:51.501Z,99.90
2022-09-05T07:43:24.142Z,99.90
2022-09-05T07:46:11.418Z,99.90
2022-09-05T07:48:44.459Z,99.90
2022-09-05T07:56:49.493Z,99.90
2022-09-05T07:57:00.913Z,99.90
2022-09-05T08:00:07.148Z,99.80
2022-09-05T08:02:35.615Z,99.10
2022-09-05T08:05:05.161Z,99.90
2022-09-05T08:07:47.650Z,98.80
2022-09-05T08:10:35.668Z,97.90
2022-09-05T08:13:34.273Z,97.50
2022-09-05T08:16:15.262Z,97.60
2022-09-05T08:18:50.229Z,96.30
2022-09-05T08:21:27.451Z,96.40
2022-09-05T08:24:07.771Z,95.90
2022-09-05T08:26:47.231Z,96.00
2022-09-05T08:29:27.415Z,94.20
2022-09-05T08:32:02.563Z,93.50
2022-09-05T08:34:44.824Z,93.30
2022-09-05T08:37:21.229Z,93.30
2022-09-05T08:40:10.859Z,92.40
2022-09-05T08:43:26.499Z,92.80
2022-09-05T08:46:41.611Z,91.80
2022-09-05T08:48:47.600Z,90.60
2022-09-05T08:51:28.005Z,90.70
2022-09-05T08:54:12.019Z,89.10
2022-09-05T08:56:51.989Z,88.60
2022-09-05T09:00:14.349Z,85.00
2022-09-05T09:03:03.902Z,84.90
2022-09-05T09:06:08.524Z,82.40
2022-09-05T09:08:56.365Z,81.50
2022-09-05T09:11:34.216Z,83.60
2022-09-05T09:14:36.791Z,80.10
2022-09-05T09:17:26.249Z,77.10
2022-09-05T09:20:09.910Z,76.30
2022-09-05T09:22:43.269Z,75.00
2022-09-05T09:25:18.405Z,76.40
2022-09-05T09:28:48.578Z,73.60
2022-09-05T09:31:34.941Z,74.00
2022-09-05T09:34:29.504Z,71.40
2022-09-05T09:37:20.147Z,70.10
2022-09-05T09:40:23.205Z,71.00
2022-09-05T09:42:55.568Z,64.90
2022-09-05T09:45:49.182Z,65.30
2022-09-05T09:48:46.942Z,67.10
2022-09-05T09:51:34.572Z,64.30
2022-09-05T09:54:16.464Z,65.10
2022-09-05T09:57:07.712Z,61.90
2022-09-05T10:00:03.821Z,63.10
2022-09-05T10:05:08.317Z,59.60
2022-09-05T10:10:43.932Z,57.00
2022-09-05T10:10:55.124Z,60.60
2022-09-05T10:13:21.807Z,56.60
2022-09-05T10:16:32.085Z,51.90
2022-09-05T10:22:56.633Z,53.30
2022-09-05T10:26:01.430Z,53.00
2022-09-05T10:28:42.219Z,50.60
2022-09-05T10:33:33.831Z,49.70
2022-09-05T10:35:21.071Z,48.90
2022-09-05T10:37:09.765Z,42.90
2022-09-05T10:39:41.336Z,44.70
2022-09-05T10:42:15.436Z,46.40
2022-09-05T10:44:49.076Z,44.90
2022-09-05T10:47:27.335Z,42.00
2022-09-05T10:50:04.900Z,43.20
2022-09-05T10:52:38.691Z,41.10
2022-09-05T10:55:20.259Z,42.80
2022-09-05T10:58:01.007Z,41.30
2022-09-05T11:02:23.729Z,41.50
2022-09-05T11:03:50.256Z,43.50
2022-09-05T11:06:25.138Z,43.90
2022-09-05T11:09:03.159Z,43.10
2022-09-05T11:11:40.828Z,45.80
2022-09-05T11:14:29.794Z,48.30
2022-09-05T11:17:07.045Z,46.00
2022-09-05T11:19:42.891Z,47.20
2022-09-05T11:22:24.056Z,48.50
2022-09-05T11:24:57.040Z,48.40
2022-09-05T11:27:33.456Z,49.70
2022-09-05T11:30:07.528Z,49.50
2022-09-05T11:39:49.018Z,49.30
2022-09-05T11:39:51.091Z,50.50
2022-09-05T11:40:08.638Z,52.60
2022-09-05T11:42:53.201Z,52.20
2022-09-05T11:46:03.769Z,54.00
2022-09-05T11:49:12.805Z,53.40
2022-09-05T11:52:07.585Z,54.60
2022-09-05T11:55:21.803Z,54.10
2022-09-05T11:58:43.947Z,56.00
2022-09-05T12:01:42.122Z,53.50
2022-09-05T12:04:17.118Z,55.40
2022-09-05T12:07:31.915Z,56.00
2022-09-05T12:10:46.095Z,54.40
2022-09-05T12:13:31.319Z,55.20
2022-09-05T12:16:07.822Z,57.00
2022-09-05T12:18:44.534Z,55.90
2022-09-05T12:21:31.658Z,55.60
2022-09-05T12:24:24.198Z,54.00
2022-09-05T12:27:38.662Z,53.60
2022-09-05T12:29:59.364Z,55.00
2022-09-05T12:36:01.248Z,55.50
2022-09-05T12:36:05.574Z,55.50
2022-09-05T12:40:56.038Z,55.00
2022-09-05T12:41:44.465Z,55.30
2022-09-05T12:44:45.473Z,56.70
2022-09-05T12:47:20.056Z,56.20
2022-09-05T12:50:03.544Z,55.10
2022-09-05T12:52:44.761Z,54.30
2022-09-05T12:55:26.202Z,54.10
2022-09-05T13:02:02.913Z,54.10
2022-09-05T13:03:13.346Z,53.70
2022-09-05T13:04:13.109Z,52.40
2022-09-05T13:06:40.957Z,54.40
2022-09-05T13:09:12.082Z,53.10
2022-09-05T13:14:58.214Z,52.30
2022-09-05T13:15:08.030Z,50.70
2022-09-05T13:17:45.290Z,52.70
2022-09-05T13:20:19.883Z,54.20
2022-09-05T13:22:50.979Z,50.30
2022-09-05T13:25:27.246Z,50.00
2022-09-05T13:28:02.363Z,53.00
2022-09-05T13:31:54.744Z,52.40
2022-09-05T13:38:04.875Z,51.20
2022-09-05T13:38:14.179Z,51.50
2022-09-05T13:39:14.182Z,51.10
2022-09-05T13:41:46.284Z,52.00
2022-09-05T13:44:25.200Z,52.10
2022-09-05T13:47:10.544Z,53.30
2022-09-05T13:50:05.100Z,51.00
2022-09-05T13:52:38.000Z,53.60
2022-09-05T13:55:22.324Z,52.10
2022-09-05T13:57:57.450Z,53.40
2022-09-05T14:01:13.037Z,55.90
2022-09-05T14:04:04.706Z,53.00
2022-09-05T14:07:44.088Z,54.40
2022-09-05T14:10:01.184Z,51.90
2022-09-05T14:12:39.046Z,53.40
2022-09-05T14:15:24.863Z,53.30
2022-09-05T14:18:02.991Z,53.80
2022-09-05T14:21:11.456Z,52.70
2022-09-05T14:23:53.340Z,48.80
2022-09-05T14:26:28.755Z,50.00
2022-09-05T14:29:14.237Z,49.20
2022-09-05T14:37:41.384Z,50.50
2022-09-05T14:37:49.873Z,50.80
2022-09-05T14:38:09.469Z,50.10
2022-09-05T14:41:18.107Z,50.60
2022-09-05T14:44:23.453Z,49.80
2022-09-05T14:47:35.575Z,49.30
2022-09-05T14:50:40.094Z,50.40
2022-09-05T14:57:32.176Z,50.00
2022-09-05T15:02:48.796Z,52.20
2022-09-05T15:02:55.115Z,51.70
2022-09-05T15:05:21.376Z,51.40
2022-09-05T15:07:51.279Z,51.70
2022-09-05T15:12:16.999Z,52.20
2022-09-05T15:13:25.988Z,51.70
2022-09-05T15:16:02.870Z,52.80
2022-09-05T15:18:35.340Z,54.00
2022-09-05T15:21:30.608Z,53.50
2022-09-05T15:24:13.767Z,55.80
2022-09-05T15:26:52.534Z,52.80
2022-09-05T15:29:24.771Z,53.50
2022-09-05T15:32:09.790Z,52.60
2022-09-05T15:34:39.146Z,53.40
2022-09-05T15:37:24.391Z,53.10
2022-09-05T15:40:21.774Z,54.10
2022-09-05T15:42:55.260Z,55.00
2022-09-05T15:45:27.873Z,55.40
2022-09-05T15:48:14.730Z,55.80
2022-09-05T15:50:50.158Z,53.10
2022-09-05T15:53:25.554Z,54.50
2022-09-05T15:56:00.278Z,52.80
2022-09-05T15:58:52.360Z,53.30
2022-09-05T16:01:48.639Z,53.80
2022-09-05T16:07:59.884Z,52.30
2022-09-05T16:10:33.512Z,52.70
2022-09-05T16:10:47.207Z,54.50
2022-09-05T16:12:45.664Z,54.10
2022-09-05T16:18:10.360Z,54.00
2022-09-05T16:23:20.550Z,56.00
2022-09-05T16:23:31.629Z,55.00
2022-09-05T16:23:54.217Z,52.90
2022-09-05T16:26:26.256Z,52.60
2022-09-05T16:28:58.912Z,54.70
2022-09-05T16:31:35.940Z,53.10
2022-09-05T16:34:11.780Z,53.60
2022-09-05T16:37:07.905Z,53.90
2022-09-05T16:39:41.490Z,52.00
2022-09-05T16:42:18.437Z,53.80
2022-09-05T16:44:51.776Z,52.20
2022-09-05T16:47:27.325Z,53.50
2022-09-05T16:50:02.559Z,51.90
2022-09-05T16:52:56.357Z,54.30
2022-09-05T16:55:29.890Z,53.90
2022-09-05T16:58:06.493Z,55.00
2022-09-05T17:00:55.273Z,54.90
2022-09-05T17:03:31.399Z,54.10
2022-09-05T17:06:25.557Z,54.50
2022-09-05T17:09:12.908Z,53.90
2022-09-05T17:11:58.472Z,54.00
2022-09-05T17:14:38.010Z,54.60
2022-09-05T17:17:36.018Z,55.00
2022-09-05T17:20:10.819Z,56.50
2022-09-05T17:25:14.056Z,57.30
2022-09-05T17:29:33.142Z,58.20
2022-09-05T17:29:50.493Z,57.90
2022-09-05T17:31:59.341Z,58.40
2022-09-05T17:34:49.656Z,61.20
2022-09-05T17:37:45.322Z,63.70
2022-09-05T17:41:03.208Z,62.00
2022-09-05T17:43:38.619Z,62.60
2022-09-05T17:46:20.248Z,64.80
2022-09-05T17:49:18.360Z,67.10
2022-09-05T17:52:27.441Z,66.60
2022-09-05T17:54:57.251Z,65.60
2022-09-05T17:57:42.166Z,66.60
2022-09-05T18:00:44.627Z,71.00
2022-09-05T18:04:15.924Z,72.40
2022-09-05T18:06:59.698Z,72.30
2022-09-05T18:10:01.504Z,74.10
2022-09-05T18:13:12.853Z,74.60
2022-09-05T18:16:12.178Z,74.80
2022-09-05T18:19:33.630Z,74.60
2022-09-05T18:22:04.187Z,76.70
2022-09-05T18:24:41.209Z,78.00
2022-09-05T18:27:44.038Z,79.30
2022-09-05T18:30:13.296Z,80.60
2022-09-05T18:32:45.274Z,80.60
2022-09-05T18:35:36.674Z,78.80
2022-09-05T18:38:18.144Z,78.10
2022-09-05T18:41:09.235Z,76.90
2022-09-05T18:44:13.557Z,76.10
2022-09-05T18:46:39.554Z,75.40
2022-09-05T18:50:21.718Z,76.60
2022-09-05T18:52:07.447Z,76.10
2022-09-05T18:54:37.605Z,76.50
2022-09-05T18:57:28.438Z,76.60
2022-09-05T19:00:03.184Z,76.50
2022-09-05T19:02:51.591Z,76.60
2022-09-05T19:05:40.360Z,76.40
2022-09-05T19:08:28.769Z,76.80
2022-09-05T19:11:02.209Z,77.10
2022-09-05T19:13:58.478Z,77.40
2022-09-05T19:16:43.494Z,77.70
2022-09-05T19:19:19.391Z,78.10
2022-09-05T19:22:42.267Z,79.60
2022-09-05T19:24:47.873Z,80.10
2022-09-05T19:28:20.657Z,80.00
2022-09-05T19:36:46.080Z,80.60
2022-09-05T19:36:51.929Z,80.30
2022-09-05T19:37:09.250Z,81.00
2022-09-05T19:39:52.069Z,80.90
2022-09-05T19:47:27.402Z,80.80
2022-09-05T19:47:36.963Z,81.60
2022-09-05T19:47:43.462Z,81.20
2022-09-05T19:50:11.593Z,81.80
2022-09-05T19:52:42.867Z,82.20
2022-09-05T19:55:23.414Z,81.60
2022-09-05T19:58:18.421Z,81.90
2022-09-05T20:00:45.936Z,81.40
2022-09-05T20:03:31.794Z,80.30
2022-09-05T20:06:30.073Z,80.60
2022-09-05T20:09:16.128Z,80.60
2022-09-05T20:11:49.762Z,80.10
2022-09-05T20:14:23.061Z,80.50
2022-09-05T20:16:53.230Z,80.60
2022-09-05T20:19:28.786Z,80.10
2022-09-05T20:21:59.816Z,80.40
2022-09-05T20:24:49.081Z,80.00
2022-09-05T20:27:17.905Z,80.30
2022-09-05T20:29:55.795Z,80.90
2022-09-05T20:32:39.839Z,79.70
2022-09-05T20:37:54.521Z,80.00
2022-09-05T20:43:10.064Z,80.20
2022-09-05T20:43:25.125Z,79.80
2022-09-05T20:43:53.836Z,79.60
2022-09-05T20:54:07.082Z,80.30
2022-09-05T20:54:17.605Z,80.20
2022-09-05T20:54:22.373Z,80.20
2022-09-05T20:55:39.754Z,80.20
2022-09-05T20:58:12.362Z,79.80
2022-09-05T21:01:20.176Z,79.80
2022-09-05T21:03:38.614Z,80.10
2022-09-05T21:06:23.656Z,80.10
2022-09-05T21:08:56.120Z,79.80
2022-09-05T21:11:32.647Z,79.50
2022-09-05T21:14:04.141Z,79.90
2022-09-05T21:16:40.378Z,80.00
2022-09-05T21:19:23.772Z,79.50
2022-09-05T21:22:04.603Z,80.20
2022-09-05T21:24:33.884Z,79.30
2022-09-05T21:27:22.994Z,79.10
2022-09-05T21:29:58.621Z,79.00
2022-09-05T21:32:36.270Z,78.90
2022-09-05T21:35:34.484Z,79.10
2022-09-05T21:37:57.667Z,78.90
2022-09-05T21:40:25.952Z,79.20
2022-09-05T21:47:34.726Z,78.60
2022-09-05T21:47:48.363Z,79.00
2022-09-05T21:48:37.030Z,78.70
2022-09-05T21:51:10.417Z,79.00
2022-09-05T21:55:54.769Z,79.00
2022-09-05T21:59:28.596Z,78.90
2022-09-05T22:02:16.814Z,79.20
2022-09-05T22:04:47.137Z,79.20
2022-09-05T22:07:19.482Z,80.20
2022-09-05T22:10:03.438Z,79.30
2022-09-05T22:12:36.016Z,79.20
2022-09-05T22:15:27.450Z,79.70
2022-09-05T22:17:58.387Z,80.50
2022-09-05T22:20:45.577Z,79.70
2022-09-05T22:23:15.137Z,79.70
2022-09-05T22:25:44.188Z,79.60
2022-09-05T22:28:16.920Z,79.60
2022-09-05T22:30:45.107Z,79.30
2022-09-05T22:33:13.465Z,79.30
2022-09-05T22:35:42.261Z,79.70
2022-09-05T22:38:15.328Z,79.50
2022-09-05T22:40:47.915Z,79.70
2022-09-05T22:43:17.634Z,79.80
2022-09-05T22:45:45.825Z,80.90
2022-09-05T22:48:15.232Z,80.70
2022-09-05T22:50:44.084Z,80.50
2022-09-05T22:53:12.200Z,81.10
2022-09-05T22:55:42.362Z,80.50
2022-09-05T22:58:14.363Z,80.60
2022-09-05T23:00:44.549Z,81.00
2022-09-05T23:03:12.875Z,80.70
2022-09-05T23:05:41.145Z,81.00
2022-09-05T23:08:10.061Z,81.00
2022-09-05T23:10:38.930Z,81.00
2022-09-05T23:13:09.002Z,80.90
2022-09-05T23:15:38.968Z,81.10
2022-09-05T23:18:07.302Z,81.20
2022-09-05T23:20:35.472Z,81.30
2022-09-05T23:23:05.738Z,81.60
2022-09-05T23:25:34.070Z,81.70
2022-09-05T23:28:06.848Z,81.70
2022-09-05T23:30:35.233Z,81.90
2022-09-05T23:33:06.984Z,82.60
2022-09-05T23:35:35.628Z,83.30
2022-09-05T23:38:04.458Z,83.10
2022-09-05T23:40:32.716Z,83.60
2022-09-05T23:43:01.326Z,83.20
2022-09-05T23:45:30.415Z,83.50
2022-09-05T23:47:58.916Z,84.30
2022-09-05T23:50:29.533Z,83.80
2022-09-05T23:52:57.959Z,84.20
2022-09-05T23:55:27.162Z,84.20
2022-09-05T23:57:58.297Z,84.10
